sensor_id;sensor_type;location;lat;lon;timestamp;P1;durP1;ratioP1;P2;durP2;ratioP2
19998;SDS011;10160;50.926;4.374;2023-04-29T00:01:04;70.13;;;34.23;;
19998;SDS011;10160;50.926;4.374;2023-04-29T00:03:30;67.33;;;34.17;;
19998;SDS011;10160;50.926;4.374;2023-04-29T00:05:58;64.60;;;31.70;;
19998;SDS011;10160;50.926;4.374;2023-04-29T00:08:25;67.67;;;32.43;;
19998;SDS011;10160;50.926;4.374;2023-04-29T00:10:51;64.83;;;32.70;;
19998;SDS011;10160;50.926;4.374;2023-04-29T00:13:17;63.17;;;32.20;;
19998;SDS011;10160;50.926;4.374;2023-04-29T00:15:43;63.90;;;31.53;;
19998;SDS011;10160;50.926;4.374;2023-04-29T00:18:08;66.43;;;31.83;;
19998;SDS011;10160;50.926;4.374;2023-04-29T00:20:35;67.77;;;32.13;;
19998;SDS011;10160;50.926;4.374;2023-04-29T00:23:02;62.43;;;30.37;;
19998;SDS011;10160;50.926;4.374;2023-04-29T00:25:28;65.70;;;31.43;;
19998;SDS011;10160;50.926;4.374;2023-04-29T00:27:53;63.00;;;31.97;;
19998;SDS011;10160;50.926;4.374;2023-04-29T00:30:19;64.57;;;31.73;;
19998;SDS011;10160;50.926;4.374;2023-04-29T00:32:45;65.53;;;31.63;;
19998;SDS011;10160;50.926;4.374;2023-04-29T00:35:10;66.80;;;30.77;;
19998;SDS011;10160;50.926;4.374;2023-04-29T00:37:36;63.23;;;31.40;;
19998;SDS011;10160;50.926;4.374;2023-04-29T00:40:02;62.73;;;30.17;;
19998;SDS011;10160;50.926;4.374;2023-04-29T00:42:29;60.50;;;30.97;;
19998;SDS011;10160;50.926;4.374;2023-04-29T00:44:57;62.60;;;30.40;;
19998;SDS011;10160;50.926;4.374;2023-04-29T00:47:23;64.20;;;30.63;;
19998;SDS011;10160;50.926;4.374;2023-04-29T00:49:48;59.80;;;31.37;;
19998;SDS011;10160;50.926;4.374;2023-04-29T00:52:14;61.03;;;30.40;;
19998;SDS011;10160;50.926;4.374;2023-04-29T00:54:41;56.83;;;29.43;;
19998;SDS011;10160;50.926;4.374;2023-04-29T00:57:08;63.77;;;31.13;;
19998;SDS011;10160;50.926;4.374;2023-04-29T00:59:34;58.97;;;30.60;;
19998;SDS011;10160;50.926;4.374;2023-04-29T01:02:03;67.07;;;31.80;;
19998;SDS011;10160;50.926;4.374;2023-04-29T01:04:29;71.67;;;31.93;;
19998;SDS011;10160;50.926;4.374;2023-04-29T01:09:52;68.90;;;32.23;;
19998;SDS011;10160;50.926;4.374;2023-04-29T01:12:33;69.20;;;32.10;;
19998;SDS011;10160;50.926;4.374;2023-04-29T01:17:42;68.20;;;31.80;;
19998;SDS011;10160;50.926;4.374;2023-04-29T01:20:12;69.20;;;32.30;;
19998;SDS011;10160;50.926;4.374;2023-04-29T01:22:39;69.70;;;33.33;;
19998;SDS011;10160;50.926;4.374;2023-04-29T01:25:05;69.60;;;33.80;;
19998;SDS011;10160;50.926;4.374;2023-04-29T01:27:51;72.57;;;32.30;;
19998;SDS011;10160;50.926;4.374;2023-04-29T01:34:01;64.33;;;31.00;;
19998;SDS011;10160;50.926;4.374;2023-04-29T01:40:07;68.43;;;31.47;;
19998;SDS011;10160;50.926;4.374;2023-04-29T01:43:00;72.03;;;32.43;;
19998;SDS011;10160;50.926;4.374;2023-04-29T01:45:27;71.47;;;31.73;;
19998;SDS011;10160;50.926;4.374;2023-04-29T01:47:54;63.10;;;29.90;;
19998;SDS011;10160;50.926;4.374;2023-04-29T01:50:21;60.67;;;30.93;;
19998;SDS011;10160;50.926;4.374;2023-04-29T01:52:46;67.07;;;31.10;;
19998;SDS011;10160;50.926;4.374;2023-04-29T01:55:12;64.47;;;31.40;;
19998;SDS011;10160;50.926;4.374;2023-04-29T01:57:38;63.73;;;29.87;;
19998;SDS011;10160;50.926;4.374;2023-04-29T02:00:03;61.67;;;30.40;;
19998;SDS011;10160;50.926;4.374;2023-04-29T02:02:30;58.10;;;29.90;;
19998;SDS011;10160;50.926;4.374;2023-04-29T02:04:55;57.10;;;27.13;;
19998;SDS011;10160;50.926;4.374;2023-04-29T02:07:21;47.27;;;26.20;;
19998;SDS011;10160;50.926;4.374;2023-04-29T02:09:47;44.60;;;24.07;;
19998;SDS011;10160;50.926;4.374;2023-04-29T02:12:13;42.37;;;21.47;;
19998;SDS011;10160;50.926;4.374;2023-04-29T02:14:38;42.03;;;21.77;;
19998;SDS011;10160;50.926;4.374;2023-04-29T02:17:04;38.77;;;21.87;;
19998;SDS011;10160;50.926;4.374;2023-04-29T02:19:30;37.63;;;21.47;;
19998;SDS011;10160;50.926;4.374;2023-04-29T02:21:55;39.90;;;22.77;;
19998;SDS011;10160;50.926;4.374;2023-04-29T02:24:21;41.37;;;22.97;;
19998;SDS011;10160;50.926;4.374;2023-04-29T02:26:47;37.37;;;23.30;;
19998;SDS011;10160;50.926;4.374;2023-04-29T02:29:12;42.00;;;23.20;;
19998;SDS011;10160;50.926;4.374;2023-04-29T02:31:38;42.97;;;24.93;;
19998;SDS011;10160;50.926;4.374;2023-04-29T02:34:04;45.30;;;24.63;;
19998;SDS011;10160;50.926;4.374;2023-04-29T02:36:30;45.20;;;24.17;;
19998;SDS011;10160;50.926;4.374;2023-04-29T02:38:56;40.27;;;23.23;;
19998;SDS011;10160;50.926;4.374;2023-04-29T02:41:21;40.27;;;23.00;;
19998;SDS011;10160;50.926;4.374;2023-04-29T02:43:47;38.00;;;22.50;;
19998;SDS011;10160;50.926;4.374;2023-04-29T02:46:13;37.40;;;20.43;;
19998;SDS011;10160;50.926;4.374;2023-04-29T02:48:40;33.57;;;19.33;;
19998;SDS011;10160;50.926;4.374;2023-04-29T02:51:05;36.80;;;19.87;;
19998;SDS011;10160;50.926;4.374;2023-04-29T02:53:31;36.03;;;18.97;;
19998;SDS011;10160;50.926;4.374;2023-04-29T02:55:57;36.63;;;19.53;;
19998;SDS011;10160;50.926;4.374;2023-04-29T02:58:23;32.90;;;18.93;;
19998;SDS011;10160;50.926;4.374;2023-04-29T03:00:49;38.47;;;20.67;;
19998;SDS011;10160;50.926;4.374;2023-04-29T03:03:15;38.73;;;19.50;;
19998;SDS011;10160;50.926;4.374;2023-04-29T03:05:41;36.17;;;20.10;;
19998;SDS011;10160;50.926;4.374;2023-04-29T03:08:07;39.53;;;20.03;;
19998;SDS011;10160;50.926;4.374;2023-04-29T03:10:34;39.73;;;20.73;;
19998;SDS011;10160;50.926;4.374;2023-04-29T03:13:00;41.20;;;21.07;;
19998;SDS011;10160;50.926;4.374;2023-04-29T03:15:26;37.87;;;19.57;;
19998;SDS011;10160;50.926;4.374;2023-04-29T03:17:52;32.40;;;18.20;;
19998;SDS011;10160;50.926;4.374;2023-04-29T03:20:18;32.17;;;18.33;;
19998;SDS011;10160;50.926;4.374;2023-04-29T03:22:44;32.93;;;18.83;;
19998;SDS011;10160;50.926;4.374;2023-04-29T03:25:10;32.33;;;16.97;;
19998;SDS011;10160;50.926;4.374;2023-04-29T03:27:37;30.23;;;17.53;;
19998;SDS011;10160;50.926;4.374;2023-04-29T03:30:03;31.23;;;16.43;;
19998;SDS011;10160;50.926;4.374;2023-04-29T03:32:30;39.57;;;19.10;;
19998;SDS011;10160;50.926;4.374;2023-04-29T03:34:56;33.13;;;19.17;;
19998;SDS011;10160;50.926;4.374;2023-04-29T03:37:21;41.03;;;21.23;;
19998;SDS011;10160;50.926;4.374;2023-04-29T03:39:47;40.47;;;21.07;;
19998;SDS011;10160;50.926;4.374;2023-04-29T03:42:13;39.50;;;22.67;;
19998;SDS011;10160;50.926;4.374;2023-04-29T03:44:38;39.70;;;21.60;;
19998;SDS011;10160;50.926;4.374;2023-04-29T03:47:04;46.73;;;24.47;;
19998;SDS011;10160;50.926;4.374;2023-04-29T03:49:30;45.33;;;22.87;;
19998;SDS011;10160;50.926;4.374;2023-04-29T03:51:56;45.97;;;23.63;;
19998;SDS011;10160;50.926;4.374;2023-04-29T03:54:22;52.27;;;26.47;;
19998;SDS011;10160;50.926;4.374;2023-04-29T03:56:47;48.73;;;25.87;;
19998;SDS011;10160;50.926;4.374;2023-04-29T03:59:13;45.93;;;25.20;;
19998;SDS011;10160;50.926;4.374;2023-04-29T04:01:39;48.50;;;25.93;;
19998;SDS011;10160;50.926;4.374;2023-04-29T04:04:04;50.17;;;26.80;;
19998;SDS011;10160;50.926;4.374;2023-04-29T04:06:30;50.37;;;25.83;;
19998;SDS011;10160;50.926;4.374;2023-04-29T04:08:56;62.90;;;27.57;;
19998;SDS011;10160;50.926;4.374;2023-04-29T04:11:22;52.10;;;27.13;;
19998;SDS011;10160;50.926;4.374;2023-04-29T04:13:47;51.27;;;25.63;;
19998;SDS011;10160;50.926;4.374;2023-04-29T04:16:13;54.10;;;26.87;;
19998;SDS011;10160;50.926;4.374;2023-04-29T04:18:40;57.30;;;26.20;;
19998;SDS011;10160;50.926;4.374;2023-04-29T04:21:06;54.43;;;26.97;;
19998;SDS011;10160;50.926;4.374;2023-04-29T04:23:32;45.27;;;24.67;;
19998;SDS011;10160;50.926;4.374;2023-04-29T04:25:58;42.93;;;23.47;;
19998;SDS011;10160;50.926;4.374;2023-04-29T04:28:23;44.47;;;23.23;;
19998;SDS011;10160;50.926;4.374;2023-04-29T04:30:49;38.80;;;21.70;;
19998;SDS011;10160;50.926;4.374;2023-04-29T04:33:15;37.23;;;21.73;;
19998;SDS011;10160;50.926;4.374;2023-04-29T04:35:41;43.53;;;22.27;;
19998;SDS011;10160;50.926;4.374;2023-04-29T04:38:07;39.73;;;21.33;;
19998;SDS011;10160;50.926;4.374;2023-04-29T04:40:33;41.10;;;20.40;;
19998;SDS011;10160;50.926;4.374;2023-04-29T04:42:58;37.93;;;22.73;;
19998;SDS011;10160;50.926;4.374;2023-04-29T04:45:24;39.57;;;20.50;;
19998;SDS011;10160;50.926;4.374;2023-04-29T04:47:53;37.70;;;20.00;;
19998;SDS011;10160;50.926;4.374;2023-04-29T04:50:19;36.00;;;19.67;;
19998;SDS011;10160;50.926;4.374;2023-04-29T04:52:45;38.70;;;20.80;;
19998;SDS011;10160;50.926;4.374;2023-04-29T04:55:11;40.27;;;20.43;;
19998;SDS011;10160;50.926;4.374;2023-04-29T04:57:36;39.17;;;19.87;;
19998;SDS011;10160;50.926;4.374;2023-04-29T05:00:02;33.50;;;20.17;;
19998;SDS011;10160;50.926;4.374;2023-04-29T05:02:29;38.87;;;21.23;;
19998;SDS011;10160;50.926;4.374;2023-04-29T05:04:55;41.23;;;20.00;;
19998;SDS011;10160;50.926;4.374;2023-04-29T05:07:20;38.47;;;18.93;;
19998;SDS011;10160;50.926;4.374;2023-04-29T05:09:46;34.63;;;19.00;;
19998;SDS011;10160;50.926;4.374;2023-04-29T05:12:12;37.93;;;19.17;;
19998;SDS011;10160;50.926;4.374;2023-04-29T05:14:38;39.93;;;20.30;;
19998;SDS011;10160;50.926;4.374;2023-04-29T05:17:03;35.13;;;18.70;;
19998;SDS011;10160;50.926;4.374;2023-04-29T05:19:29;36.07;;;18.60;;
19998;SDS011;10160;50.926;4.374;2023-04-29T05:21:55;37.07;;;19.63;;
19998;SDS011;10160;50.926;4.374;2023-04-29T05:24:21;37.90;;;19.37;;
19998;SDS011;10160;50.926;4.374;2023-04-29T05:26:46;39.90;;;19.53;;
19998;SDS011;10160;50.926;4.374;2023-04-29T05:29:14;40.87;;;21.37;;
19998;SDS011;10160;50.926;4.374;2023-04-29T05:31:39;46.90;;;20.60;;
19998;SDS011;10160;50.926;4.374;2023-04-29T05:34:05;49.37;;;21.07;;
19998;SDS011;10160;50.926;4.374;2023-04-29T05:36:31;43.40;;;20.60;;
19998;SDS011;10160;50.926;4.374;2023-04-29T05:38:56;40.43;;;21.27;;
19998;SDS011;10160;50.926;4.374;2023-04-29T05:41:22;42.70;;;21.37;;
19998;SDS011;10160;50.926;4.374;2023-04-29T05:43:49;38.40;;;21.60;;
19998;SDS011;10160;50.926;4.374;2023-04-29T05:46:15;39.57;;;21.27;;
19998;SDS011;10160;50.926;4.374;2023-04-29T05:48:41;40.27;;;20.57;;
19998;SDS011;10160;50.926;4.374;2023-04-29T05:51:06;40.30;;;20.20;;
19998;SDS011;10160;50.926;4.374;2023-04-29T05:53:32;36.47;;;19.90;;
19998;SDS011;10160;50.926;4.374;2023-04-29T05:55:58;39.47;;;20.47;;
19998;SDS011;10160;50.926;4.374;2023-04-29T05:58:23;34.63;;;18.47;;
19998;SDS011;10160;50.926;4.374;2023-04-29T06:00:52;34.27;;;19.57;;
19998;SDS011;10160;50.926;4.374;2023-04-29T06:03:17;38.73;;;19.73;;
19998;SDS011;10160;50.926;4.374;2023-04-29T06:05:43;40.47;;;19.53;;
19998;SDS011;10160;50.926;4.374;2023-04-29T06:08:09;36.37;;;18.23;;
19998;SDS011;10160;50.926;4.374;2023-04-29T06:10:35;38.83;;;18.90;;
19998;SDS011;10160;50.926;4.374;2023-04-29T06:13:01;34.63;;;18.27;;
19998;SDS011;10160;50.926;4.374;2023-04-29T06:15:26;31.87;;;17.43;;
19998;SDS011;10160;50.926;4.374;2023-04-29T06:17:52;34.17;;;17.50;;
19998;SDS011;10160;50.926;4.374;2023-04-29T06:20:18;38.17;;;19.40;;
19998;SDS011;10160;50.926;4.374;2023-04-29T06:22:44;30.40;;;17.77;;
19998;SDS011;10160;50.926;4.374;2023-04-29T06:25:10;39.07;;;19.27;;
19998;SDS011;10160;50.926;4.374;2023-04-29T06:27:35;32.60;;;17.03;;
19998;SDS011;10160;50.926;4.374;2023-04-29T06:30:01;31.93;;;17.70;;
19998;SDS011;10160;50.926;4.374;2023-04-29T06:32:27;35.37;;;19.50;;
19998;SDS011;10160;50.926;4.374;2023-04-29T06:34:52;36.67;;;19.63;;
19998;SDS011;10160;50.926;4.374;2023-04-29T06:37:18;34.20;;;19.63;;
19998;SDS011;10160;50.926;4.374;2023-04-29T06:39:44;37.47;;;19.47;;
19998;SDS011;10160;50.926;4.374;2023-04-29T06:42:09;37.33;;;20.33;;
19998;SDS011;10160;50.926;4.374;2023-04-29T06:44:35;35.77;;;19.93;;
19998;SDS011;10160;50.926;4.374;2023-04-29T06:47:01;40.97;;;21.37;;
19998;SDS011;10160;50.926;4.374;2023-04-29T06:49:27;36.37;;;20.70;;
19998;SDS011;10160;50.926;4.374;2023-04-29T06:51:52;33.13;;;19.97;;
19998;SDS011;10160;50.926;4.374;2023-04-29T06:54:18;38.93;;;20.37;;
19998;SDS011;10160;50.926;4.374;2023-04-29T06:56:44;35.97;;;20.80;;
19998;SDS011;10160;50.926;4.374;2023-04-29T06:59:09;39.87;;;20.90;;
19998;SDS011;10160;50.926;4.374;2023-04-29T07:01:39;36.80;;;20.20;;
19998;SDS011;10160;50.926;4.374;2023-04-29T07:04:05;32.67;;;20.10;;
19998;SDS011;10160;50.926;4.374;2023-04-29T07:06:30;37.43;;;21.20;;
19998;SDS011;10160;50.926;4.374;2023-04-29T07:08:56;32.17;;;20.53;;
19998;SDS011;10160;50.926;4.374;2023-04-29T07:11:22;36.23;;;21.33;;
19998;SDS011;10160;50.926;4.374;2023-04-29T07:13:49;38.23;;;21.67;;
19998;SDS011;10160;50.926;4.374;2023-04-29T07:16:17;37.87;;;21.70;;
19998;SDS011;10160;50.926;4.374;2023-04-29T07:18:45;39.37;;;22.43;;
19998;SDS011;10160;50.926;4.374;2023-04-29T07:21:12;46.83;;;24.20;;
19998;SDS011;10160;50.926;4.374;2023-04-29T07:23:37;40.77;;;24.70;;
19998;SDS011;10160;50.926;4.374;2023-04-29T07:26:12;40.07;;;25.47;;
19998;SDS011;10160;50.926;4.374;2023-04-29T07:28:40;44.80;;;23.63;;
19998;SDS011;10160;50.926;4.374;2023-04-29T07:31:06;44.43;;;24.50;;
19998;SDS011;10160;50.926;4.374;2023-04-29T07:33:33;48.97;;;25.83;;
19998;SDS011;10160;50.926;4.374;2023-04-29T07:35:59;49.53;;;26.27;;
19998;SDS011;10160;50.926;4.374;2023-04-29T07:38:25;50.47;;;25.03;;
19998;SDS011;10160;50.926;4.374;2023-04-29T07:40:51;44.63;;;24.07;;
19998;SDS011;10160;50.926;4.374;2023-04-29T07:43:17;42.37;;;25.87;;
19998;SDS011;10160;50.926;4.374;2023-04-29T07:45:42;44.80;;;25.63;;
19998;SDS011;10160;50.926;4.374;2023-04-29T07:48:08;45.67;;;26.07;;
19998;SDS011;10160;50.926;4.374;2023-04-29T07:50:34;46.63;;;25.53;;
19998;SDS011;10160;50.926;4.374;2023-04-29T07:53:02;45.37;;;25.10;;
19998;SDS011;10160;50.926;4.374;2023-04-29T07:55:28;48.70;;;26.23;;
19998;SDS011;10160;50.926;4.374;2023-04-29T07:57:55;49.03;;;26.73;;
19998;SDS011;10160;50.926;4.374;2023-04-29T08:00:24;42.70;;;25.90;;
19998;SDS011;10160;50.926;4.374;2023-04-29T08:02:53;47.80;;;26.20;;
19998;SDS011;10160;50.926;4.374;2023-04-29T08:05:20;50.30;;;26.50;;
19998;SDS011;10160;50.926;4.374;2023-04-29T08:07:47;43.70;;;25.17;;
19998;SDS011;10160;50.926;4.374;2023-04-29T08:10:13;46.53;;;25.30;;
19998;SDS011;10160;50.926;4.374;2023-04-29T08:12:39;41.07;;;23.17;;
19998;SDS011;10160;50.926;4.374;2023-04-29T08:15:05;41.50;;;23.90;;
19998;SDS011;10160;50.926;4.374;2023-04-29T08:17:32;39.17;;;23.63;;
19998;SDS011;10160;50.926;4.374;2023-04-29T08:19:58;38.73;;;23.60;;
19998;SDS011;10160;50.926;4.374;2023-04-29T08:22:23;42.83;;;22.93;;
19998;SDS011;10160;50.926;4.374;2023-04-29T08:24:49;39.53;;;22.80;;
19998;SDS011;10160;50.926;4.374;2023-04-29T08:27:15;41.33;;;22.63;;
19998;SDS011;10160;50.926;4.374;2023-04-29T08:29:41;41.30;;;23.50;;
19998;SDS011;10160;50.926;4.374;2023-04-29T08:32:07;38.87;;;23.20;;
19998;SDS011;10160;50.926;4.374;2023-04-29T08:34:33;35.77;;;22.27;;
19998;SDS011;10160;50.926;4.374;2023-04-29T08:37:00;33.67;;;21.30;;
19998;SDS011;10160;50.926;4.374;2023-04-29T08:39:29;41.87;;;22.70;;
19998;SDS011;10160;50.926;4.374;2023-04-29T08:41:55;38.20;;;23.53;;
19998;SDS011;10160;50.926;4.374;2023-04-29T08:44:24;39.07;;;23.47;;
19998;SDS011;10160;50.926;4.374;2023-04-29T08:46:51;38.80;;;22.20;;
19998;SDS011;10160;50.926;4.374;2023-04-29T08:49:17;41.80;;;22.80;;
19998;SDS011;10160;50.926;4.374;2023-04-29T08:51:43;34.70;;;21.63;;
19998;SDS011;10160;50.926;4.374;2023-04-29T08:54:10;40.43;;;21.90;;
19998;SDS011;10160;50.926;4.374;2023-04-29T08:56:35;41.77;;;22.97;;
19998;SDS011;10160;50.926;4.374;2023-04-29T08:59:02;43.53;;;23.23;;
19998;SDS011;10160;50.926;4.374;2023-04-29T09:01:31;40.33;;;21.90;;
19998;SDS011;10160;50.926;4.374;2023-04-29T09:04:07;42.40;;;22.87;;
19998;SDS011;10160;50.926;4.374;2023-04-29T09:06:54;40.23;;;21.83;;
19998;SDS011;10160;50.926;4.374;2023-04-29T09:09:23;41.40;;;22.40;;
19998;SDS011;10160;50.926;4.374;2023-04-29T09:11:49;44.00;;;21.73;;
19998;SDS011;10160;50.926;4.374;2023-04-29T09:14:14;36.27;;;22.10;;
19998;SDS011;10160;50.926;4.374;2023-04-29T09:16:40;41.37;;;22.53;;
19998;SDS011;10160;50.926;4.374;2023-04-29T09:19:06;42.80;;;23.80;;
19998;SDS011;10160;50.926;4.374;2023-04-29T09:21:31;44.47;;;23.43;;
19998;SDS011;10160;50.926;4.374;2023-04-29T09:23:58;40.57;;;22.20;;
19998;SDS011;10160;50.926;4.374;2023-04-29T09:26:25;43.57;;;22.93;;
19998;SDS011;10160;50.926;4.374;2023-04-29T09:29:12;39.73;;;22.57;;
19998;SDS011;10160;50.926;4.374;2023-04-29T09:31:40;44.13;;;23.30;;
19998;SDS011;10160;50.926;4.374;2023-04-29T09:34:06;36.00;;;22.50;;
19998;SDS011;10160;50.926;4.374;2023-04-29T09:39:10;40.43;;;22.77;;
19998;SDS011;10160;50.926;4.374;2023-04-29T09:44:19;44.10;;;23.23;;
19998;SDS011;10160;50.926;4.374;2023-04-29T09:46:54;37.77;;;21.27;;
19998;SDS011;10160;50.926;4.374;2023-04-29T09:49:22;37.27;;;23.00;;
19998;SDS011;10160;50.926;4.374;2023-04-29T09:51:55;38.37;;;22.80;;
19998;SDS011;10160;50.926;4.374;2023-04-29T09:54:25;39.33;;;23.43;;
19998;SDS011;10160;50.926;4.374;2023-04-29T09:56:54;36.97;;;23.67;;
19998;SDS011;10160;50.926;4.374;2023-04-29T09:59:21;38.07;;;22.43;;
19998;SDS011;10160;50.926;4.374;2023-04-29T10:01:49;43.53;;;21.00;;
19998;SDS011;10160;50.926;4.374;2023-04-29T10:04:17;33.33;;;20.90;;
19998;SDS011;10160;50.926;4.374;2023-04-29T10:06:44;32.27;;;20.97;;
19998;SDS011;10160;50.926;4.374;2023-04-29T10:09:13;32.80;;;20.80;;
19998;SDS011;10160;50.926;4.374;2023-04-29T10:11:46;31.90;;;19.35;;
19998;SDS011;10160;50.926;4.374;2023-04-29T10:14:23;33.60;;;19.98;;
19998;SDS011;10160;50.926;4.374;2023-04-29T10:17:02;35.30;;;19.17;;
19998;SDS011;10160;50.926;4.374;2023-04-29T10:22:28;29.27;;;19.73;;
19998;SDS011;10160;50.926;4.374;2023-04-29T10:25:09;32.03;;;19.55;;
19998;SDS011;10160;50.926;4.374;2023-04-29T10:27:36;32.88;;;19.63;;
19998;SDS011;10160;50.926;4.374;2023-04-29T10:30:03;33.05;;;19.33;;
19998;SDS011;10160;50.926;4.374;2023-04-29T10:32:33;31.10;;;19.23;;
19998;SDS011;10160;50.926;4.374;2023-04-29T10:35:01;35.42;;;19.63;;
19998;SDS011;10160;50.926;4.374;2023-04-29T10:37:29;26.07;;;17.30;;
19998;SDS011;10160;50.926;4.374;2023-04-29T10:42:46;30.43;;;18.97;;
19998;SDS011;10160;50.926;4.374;2023-04-29T10:45:20;30.70;;;18.67;;
19998;SDS011;10160;50.926;4.374;2023-04-29T10:53:09;26.53;;;16.73;;
19998;SDS011;10160;50.926;4.374;2023-04-29T10:55:35;25.60;;;15.40;;
19998;SDS011;10160;50.926;4.374;2023-04-29T10:58:02;24.27;;;15.43;;
19998;SDS011;10160;50.926;4.374;2023-04-29T11:00:33;26.88;;;15.18;;
19998;SDS011;10160;50.926;4.374;2023-04-29T11:03:04;29.23;;;17.30;;
19998;SDS011;10160;50.926;4.374;2023-04-29T11:05:34;29.10;;;18.17;;
19998;SDS011;10160;50.926;4.374;2023-04-29T11:08:13;28.37;;;17.27;;
19998;SDS011;10160;50.926;4.374;2023-04-29T11:10:53;29.57;;;17.63;;
19998;SDS011;10160;50.926;4.374;2023-04-29T11:13:29;32.67;;;17.93;;
19998;SDS011;10160;50.926;4.374;2023-04-29T11:16:05;30.03;;;17.40;;
19998;SDS011;10160;50.926;4.374;2023-04-29T11:18:32;29.77;;;16.73;;
19998;SDS011;10160;50.926;4.374;2023-04-29T11:23:34;28.07;;;16.57;;
19998;SDS011;10160;50.926;4.374;2023-04-29T11:26:05;30.93;;;17.03;;
19998;SDS011;10160;50.926;4.374;2023-04-29T11:28:31;28.17;;;17.00;;
19998;SDS011;10160;50.926;4.374;2023-04-29T11:30:57;31.33;;;16.33;;
19998;SDS011;10160;50.926;4.374;2023-04-29T11:33:24;25.77;;;16.30;;
19998;SDS011;10160;50.926;4.374;2023-04-29T11:35:51;31.50;;;16.00;;
19998;SDS011;10160;50.926;4.374;2023-04-29T11:38:23;24.97;;;14.23;;
19998;SDS011;10160;50.926;4.374;2023-04-29T11:40:53;23.75;;;13.43;;
19998;SDS011;10160;50.926;4.374;2023-04-29T11:43:20;21.63;;;13.10;;
19998;SDS011;10160;50.926;4.374;2023-04-29T11:45:49;20.98;;;12.45;;
19998;SDS011;10160;50.926;4.374;2023-04-29T11:48:19;19.70;;;12.38;;
19998;SDS011;10160;50.926;4.374;2023-04-29T11:50:46;20.13;;;12.43;;
19998;SDS011;10160;50.926;4.374;2023-04-29T11:53:13;18.25;;;12.55;;
19998;SDS011;10160;50.926;4.374;2023-04-29T11:55:43;21.98;;;12.93;;
19998;SDS011;10160;50.926;4.374;2023-04-29T11:58:09;20.00;;;12.00;;
19998;SDS011;10160;50.926;4.374;2023-04-29T12:00:35;20.38;;;11.88;;
19998;SDS011;10160;50.926;4.374;2023-04-29T12:03:06;19.63;;;11.73;;
19998;SDS011;10160;50.926;4.374;2023-04-29T12:05:38;21.05;;;12.48;;
19998;SDS011;10160;50.926;4.374;2023-04-29T12:08:06;18.27;;;12.15;;
19998;SDS011;10160;50.926;4.374;2023-04-29T12:10:34;18.67;;;11.93;;
19998;SDS011;10160;50.926;4.374;2023-04-29T12:13:01;21.05;;;12.75;;
19998;SDS011;10160;50.926;4.374;2023-04-29T12:15:27;18.67;;;12.65;;
19998;SDS011;10160;50.926;4.374;2023-04-29T12:17:59;17.67;;;10.75;;
19998;SDS011;10160;50.926;4.374;2023-04-29T12:20:25;20.85;;;11.40;;
19998;SDS011;10160;50.926;4.374;2023-04-29T12:22:53;16.23;;;10.73;;
19998;SDS011;10160;50.926;4.374;2023-04-29T12:25:23;18.40;;;9.82;;
19998;SDS011;10160;50.926;4.374;2023-04-29T12:27:50;19.17;;;10.55;;
19998;SDS011;10160;50.926;4.374;2023-04-29T12:30:16;17.38;;;10.70;;
19998;SDS011;10160;50.926;4.374;2023-04-29T12:32:45;17.83;;;10.45;;
19998;SDS011;10160;50.926;4.374;2023-04-29T12:35:16;14.55;;;10.23;;
19998;SDS011;10160;50.926;4.374;2023-04-29T12:37:42;16.13;;;10.20;;
19998;SDS011;10160;50.926;4.374;2023-04-29T12:40:14;18.17;;;10.75;;
19998;SDS011;10160;50.926;4.374;2023-04-29T12:42:40;17.15;;;10.60;;
19998;SDS011;10160;50.926;4.374;2023-04-29T12:45:06;20.88;;;10.57;;
19998;SDS011;10160;50.926;4.374;2023-04-29T12:47:32;21.88;;;11.35;;
19998;SDS011;10160;50.926;4.374;2023-04-29T12:49:59;16.52;;;11.20;;
19998;SDS011;10160;50.926;4.374;2023-04-29T12:52:25;21.10;;;11.90;;
19998;SDS011;10160;50.926;4.374;2023-04-29T12:54:51;17.13;;;11.30;;
19998;SDS011;10160;50.926;4.374;2023-04-29T12:57:16;16.98;;;11.23;;
19998;SDS011;10160;50.926;4.374;2023-04-29T12:59:42;19.55;;;11.82;;
19998;SDS011;10160;50.926;4.374;2023-04-29T13:02:08;26.17;;;12.20;;
19998;SDS011;10160;50.926;4.374;2023-04-29T13:04:33;20.75;;;12.60;;
19998;SDS011;10160;50.926;4.374;2023-04-29T13:06:59;24.58;;;12.13;;
19998;SDS011;10160;50.926;4.374;2023-04-29T13:09:26;19.20;;;12.85;;
19998;SDS011;10160;50.926;4.374;2023-04-29T13:11:52;20.50;;;12.43;;
19998;SDS011;10160;50.926;4.374;2023-04-29T13:14:18;20.50;;;12.43;;
19998;SDS011;10160;50.926;4.374;2023-04-29T13:16:44;18.90;;;12.82;;
19998;SDS011;10160;50.926;4.374;2023-04-29T13:19:10;20.00;;;13.13;;
19998;SDS011;10160;50.926;4.374;2023-04-29T13:21:35;20.27;;;13.07;;
19998;SDS011;10160;50.926;4.374;2023-04-29T13:24:02;19.27;;;11.77;;
19998;SDS011;10160;50.926;4.374;2023-04-29T13:26:28;23.13;;;12.65;;
19998;SDS011;10160;50.926;4.374;2023-04-29T13:28:54;24.85;;;13.63;;
19998;SDS011;10160;50.926;4.374;2023-04-29T13:31:20;20.48;;;12.88;;
19998;SDS011;10160;50.926;4.374;2023-04-29T13:33:45;18.52;;;12.38;;
19998;SDS011;10160;50.926;4.374;2023-04-29T13:36:12;17.08;;;11.48;;
19998;SDS011;10160;50.926;4.374;2023-04-29T13:38:38;21.05;;;12.25;;
19998;SDS011;10160;50.926;4.374;2023-04-29T13:41:04;16.80;;;10.68;;
19998;SDS011;10160;50.926;4.374;2023-04-29T13:43:30;15.68;;;9.88;;
19998;SDS011;10160;50.926;4.374;2023-04-29T13:45:56;16.35;;;10.30;;
19998;SDS011;10160;50.926;4.374;2023-04-29T13:48:21;16.77;;;10.68;;
19998;SDS011;10160;50.926;4.374;2023-04-29T13:50:47;20.13;;;10.95;;
19998;SDS011;10160;50.926;4.374;2023-04-29T13:53:13;17.50;;;10.35;;
19998;SDS011;10160;50.926;4.374;2023-04-29T13:55:41;19.02;;;10.20;;
19998;SDS011;10160;50.926;4.374;2023-04-29T13:58:06;16.15;;;9.85;;
19998;SDS011;10160;50.926;4.374;2023-04-29T14:00:32;16.98;;;10.18;;
19998;SDS011;10160;50.926;4.374;2023-04-29T14:02:58;14.75;;;9.70;;
19998;SDS011;10160;50.926;4.374;2023-04-29T14:05:23;18.42;;;10.75;;
19998;SDS011;10160;50.926;4.374;2023-04-29T14:07:49;15.93;;;10.10;;
19998;SDS011;10160;50.926;4.374;2023-04-29T14:10:16;18.67;;;9.68;;
19998;SDS011;10160;50.926;4.374;2023-04-29T14:12:41;20.52;;;10.77;;
19998;SDS011;10160;50.926;4.374;2023-04-29T14:15:07;16.55;;;9.80;;
19998;SDS011;10160;50.926;4.374;2023-04-29T14:17:33;20.50;;;10.05;;
19998;SDS011;10160;50.926;4.374;2023-04-29T14:20:00;14.52;;;9.73;;
19998;SDS011;10160;50.926;4.374;2023-04-29T14:22:26;15.75;;;9.48;;
19998;SDS011;10160;50.926;4.374;2023-04-29T14:24:51;18.00;;;10.32;;
19998;SDS011;10160;50.926;4.374;2023-04-29T14:27:17;16.60;;;9.48;;
19998;SDS011;10160;50.926;4.374;2023-04-29T14:29:43;14.18;;;9.23;;
19998;SDS011;10160;50.926;4.374;2023-04-29T14:32:08;15.68;;;9.85;;
19998;SDS011;10160;50.926;4.374;2023-04-29T14:34:35;16.92;;;10.10;;
19998;SDS011;10160;50.926;4.374;2023-04-29T14:37:00;14.88;;;9.52;;
19998;SDS011;10160;50.926;4.374;2023-04-29T14:39:26;14.52;;;9.48;;
19998;SDS011;10160;50.926;4.374;2023-04-29T14:41:52;13.93;;;8.73;;
19998;SDS011;10160;50.926;4.374;2023-04-29T14:44:17;13.45;;;8.00;;
19998;SDS011;10160;50.926;4.374;2023-04-29T14:46:43;16.98;;;9.25;;
19998;SDS011;10160;50.926;4.374;2023-04-29T14:49:09;15.95;;;8.32;;
19998;SDS011;10160;50.926;4.374;2023-04-29T14:51:34;14.68;;;8.68;;
19998;SDS011;10160;50.926;4.374;2023-04-29T14:54:00;15.13;;;8.48;;